Time;durP1;ratioP1;P1;durP2;ratioP2;P2;SDS_P1;SDS_P2;PMS_P1;PMS_P2;Temp;Humidity;BMP_temperature;BMP_pressure;BME280_temperature;BME280_humidity;BME280_pressure;Samples;Min_cycle;Max_cycle;Signal;HPM_P1;HPM_P2
2022/05/30 00:01:15;;;;;;;6.90;3.70;;;;;;;10.67;78.28;97423.20;1777037;80;21904;-82
2022/05/30 00:03:41;;;;;;;7.45;3.60;;;;;;;10.67;78.28;97423.20;1773486;80;20977;-86
2022/05/30 00:06:10;;;;;;;10.15;4.08;;;;;;;10.67;78.12;97420.49;1779033;80;21011;-83
2022/05/30 00:08:36;;;;;;;3.62;2.85;;;;;;;10.66;78.19;97425.66;1778716;79;21476;-86
2022/05/30 00:11:04;;;;;;;4.95;3.15;;;;;;;10.65;78.27;97428.92;1752351;80;20996;-86
2022/05/30 00:13:30;;;;;;;7.35;3.33;;;;;;;10.63;77.95;97421.64;1741234;80;21312;-83
2022/05/30 00:15:56;;;;;;;5.35;3.15;;;;;;;10.67;78.11;97424.56;1778121;80;21539;-86
2022/05/30 00:18:22;;;;;;;5.62;3.25;;;;;;;10.70;77.97;97421.28;1778507;79;20886;-83
2022/05/30 00:20:49;;;;;;;6.67;3.55;;;;;;;10.69;78.00;97423.73;1779043;80;21281;-86
2022/05/30 00:23:15;;;;;;;4.95;3.55;;;;;;;10.67;77.99;97421.30;1778737;79;21002;-86
2022/05/30 00:25:44;;;;;;;6.70;3.27;;;;;;;10.68;78.03;97417.52;1767057;80;21076;-82
2022/05/30 00:28:09;;;;;;;;;;;;;;;10.69;77.93;97431.31;1761218;80;20993;-86
2022/05/30 00:30:36;;;;;;;3.85;2.85;;;;;;;10.69;78.00;97423.19;1779283;80;20169;-85
2022/05/30 00:33:02;;;;;;;9.40;3.92;;;;;;;10.65;77.77;97418.09;1774785;79;21028;-86
2022/05/30 00:35:28;;;;;;;4.10;2.75;;;;;;;10.61;78.51;97411.66;1770398;80;21015;-84
2022/05/30 00:37:54;;;;;;;7.08;3.80;;;;;;;10.61;78.51;97411.66;1749927;80;21178;-82
2022/05/30 00:40:20;;;;;;;4.58;3.22;;;;;;;10.54;78.21;97409.86;1756182;80;20984;-83
2022/05/30 00:42:46;;;;;;;6.87;4.05;;;;;;;10.55;78.24;97409.31;1779178;79;20949;-85
2022/05/30 00:45:12;;;;;;;6.12;3.42;;;;;;;10.55;78.50;97399.28;1756491;80;20931;-86
2022/05/30 00:47:38;;;;;;;5.55;3.20;;;;;;;10.55;78.54;97399.28;1778849;79;20998;-83
2022/05/30 00:50:05;;;;;;;6.08;3.35;;;;;;;10.56;78.42;97401.44;1778981;80;21309;-86
2022/05/30 00:52:40;;;;;;;7.25;3.77;;;;;;;10.58;78.32;97404.66;1773997;80;21442;-84
2022/05/30 00:55:18;;;;;;;7.25;3.40;;;;;;;10.59;78.16;97403.00;1755041;80;21080;-86
2022/05/30 00:57:45;;;;;;;7.97;4.03;;;;;;;10.54;78.14;97392.81;1779122;79;28138;-84
2022/05/30 01:00:18;;;;;;;11.50;4.55;;;;;;;10.60;78.22;97403.83;1779239;80;21007;-86
2022/05/30 01:02:44;;;;;;;6.50;3.87;;;;;;;10.60;78.22;97403.83;1779223;79;21116;-85
2022/05/30 01:07:59;;;;;;;5.85;2.98;;;;;;;10.59;78.41;97402.19;1758891;80;21591;-86
2022/05/30 01:10:25;;;;;;;5.75;3.92;;;;;;;10.57;78.29;97399.78;1779158;80;21556;-86
2022/05/30 01:12:55;;;;;;;7.72;4.35;;;;;;;10.57;78.34;97396.27;1778912;80;20981;-86
2022/05/30 01:15:26;;;;;;;7.53;3.65;;;;;;;10.59;78.32;97388.65;1771530;80;21495;-85
2022/05/30 01:18:27;;;;;;;8.60;5.05;;;;;;;10.56;78.32;97392.76;1736972;80;21038;-83
2022/05/30 01:21:37;;;;;;;6.92;4.75;;;;;;;10.53;78.31;97383.08;1767952;80;21089;-83
2022/05/30 01:24:26;;;;;;;8.93;4.50;;;;;;;10.51;78.53;97385.25;1732199;82;21021;-86
2022/05/30 01:27:20;;;;;;;7.72;3.30;;;;;;;10.49;78.46;97374.72;1717018;82;21482;-86
2022/05/30 01:29:53;;;;;;;5.70;4.10;;;;;;;10.48;78.31;97369.59;1756654;80;21865;-86
2022/05/30 01:32:20;;;;;;;9.70;4.87;;;;;;;10.49;78.67;97363.87;1755799;80;21416;-86
2022/05/30 01:34:46;;;;;;;7.83;4.15;;;;;;;10.49;78.67;97363.87;1768477;80;21005;-86
2022/05/30 01:37:12;;;;;;;7.28;4.40;;;;;;;10.50;78.79;97364.13;1770733;79;20881;-86
2022/05/30 01:39:38;;;;;;;8.95;4.47;;;;;;;10.50;78.84;97363.33;1753074;80;21721;-86
2022/05/30 01:42:05;;;;;;;6.58;4.22;;;;;;;10.50;79.42;97366.04;1740111;80;21152;-83
2022/05/30 01:44:31;;;;;;;5.47;3.92;;;;;;;10.45;79.47;97370.45;1764211;80;21063;-83
2022/05/30 01:46:57;;;;;;;7.53;3.70;;;;;;;10.44;80.25;97370.75;1771351;80;20882;-86
2022/05/30 01:49:23;;;;;;;7.90;3.67;;;;;;;10.40;80.66;97369.71;1779292;80;20953;-84
2022/05/30 01:51:52;;;;;;;4.90;3.87;;;;;;;10.35;79.97;97369.80;1779900;79;20977;-86
2022/05/30 01:54:16;;;;;;;5.42;3.67;;;;;;;10.35;79.97;97370.61;1778379;80;21068;-86
2022/05/30 01:56:42;;;;;;;4.22;3.33;;;;;;;10.39;80.17;97370.27;1779099;79;20984;-83
2022/05/30 01:59:08;;;;;;;7.42;3.50;;;;;;;10.41;79.82;97368.06;1779139;80;20897;-85
2022/05/30 02:01:34;;;;;;;4.12;3.25;;;;;;;10.46;79.96;97369.89;1779010;80;20889;-86
2022/05/30 02:04:01;;;;;;;6.37;3.87;;;;;;;10.48;79.64;97373.66;1779759;80;21246;-86
2022/05/30 02:06:27;;;;;;;8.65;4.28;;;;;;;10.48;79.59;97375.81;1777846;80;21139;-83
2022/05/30 02:08:53;;;;;;;6.60;4.00;;;;;;;10.51;79.43;97372.54;1775917;80;21038;-86
2022/05/30 02:11:19;;;;;;;11.85;4.85;;;;;;;10.54;79.73;97362.45;1737344;80;21003;-86
2022/05/30 02:13:45;;;;;;;8.25;3.77;;;;;;;10.54;79.73;97362.45;1768948;80;22401;-83
2022/05/30 02:18:57;;;;;;;7.65;4.20;;;;;;;10.57;79.31;97362.41;1772201;79;21144;-83
2022/05/30 02:21:23;;;;;;;6.05;5.45;;;;;;;10.57;79.41;97365.92;1754730;80;22140;-86
2022/05/30 02:23:49;;;;;;;8.98;4.53;;;;;;;10.56;79.34;97364.87;1770044;80;21149;-84
2022/05/30 02:26:15;;;;;;;8.08;7.37;;;;;;;10.57;79.15;97362.41;1778970;80;21575;-86
2022/05/30 02:28:41;;;;;;;5.25;4.30;;;;;;;10.60;79.27;97368.61;1778889;80;20838;-86
2022/05/30 02:31:07;;;;;;;5.12;4.62;;;;;;;10.57;79.42;97376.76;1770921;80;21675;-86
2022/05/30 02:39:01;;;;;;;5.37;4.03;;;;;;;10.41;79.67;97375.38;1771635;81;21045;-86
2022/05/30 02:41:27;;;;;;;6.70;4.20;;;;;;;10.42;79.62;97376.98;1753591;81;21019;-86
2022/05/30 02:43:53;;;;;;;5.80;3.55;;;;;;;10.42;79.62;97376.98;1743135;80;21217;-83
2022/05/30 02:46:19;;;;;;;5.95;5.22;;;;;;;10.40;79.42;97381.34;1779598;79;20956;-83
2022/05/30 02:48:45;;;;;;;7.10;4.90;;;;;;;10.39;79.19;97385.16;1765220;80;20842;-83
2022/05/30 02:51:11;;;;;;;3.15;2.85;;;;;;;10.39;79.17;97380.30;1755830;80;21012;-87
2022/05/30 02:53:37;;;;;;;3.77;2.90;;;;;;;10.42;79.10;97375.11;1770394;79;21020;-83
2022/05/30 02:56:04;;;;;;;4.15;3.10;;;;;;;10.42;79.10;97375.11;1763689;80;21290;-84
2022/05/30 02:58:30;;;;;;;5.62;3.12;;;;;;;10.38;78.88;97379.48;1773134;79;21443;-86
2022/05/30 03:00:56;;;;;;;4.95;3.33;;;;;;;10.39;78.80;97386.52;1779403;80;20894;-86
2022/05/30 03:03:21;;;;;;;5.85;2.70;;;;;;;10.43;79.17;97390.26;1779132;80;20894;-84
2022/05/30 03:05:47;;;;;;;4.62;2.60;;;;;;;10.33;79.27;97390.94;1742714;80;21543;-84
2022/05/30 03:08:13;;;;;;;4.05;2.70;;;;;;;10.27;79.07;97384.80;1758571;80;21099;-86
2022/05/30 03:10:39;;;;;;;4.20;3.05;;;;;;;10.28;79.14;97381.55;1784993;80;21631;-83
2022/05/30 03:13:05;;;;;;;4.53;3.95;;;;;;;10.28;79.17;97384.26;1779133;80;20956;-87
2022/05/30 03:15:31;;;;;;;5.60;4.15;;;;;;;10.27;79.08;97384.00;1779408;80;21031;-84
2022/05/30 03:17:57;;;;;;;4.97;3.40;;;;;;;10.29;79.23;97394.79;1779141;80;20965;-83
2022/05/30 03:20:23;;;;;;;6.10;3.08;;;;;;;10.30;78.93;97401.81;1772438;80;21215;-86
2022/05/30 03:22:49;;;;;;;6.45;4.12;;;;;;;10.27;79.60;97397.54;1752880;80;21013;-87
2022/05/30 03:25:16;;;;;;;5.37;4.30;;;;;;;10.27;79.60;97397.54;1779344;80;20976;-86
2022/05/30 03:27:42;;;;;;;6.67;3.95;;;;;;;10.25;79.33;97406.48;1778882;80;21080;-87
2022/05/30 03:30:09;;;;;;;7.72;4.12;;;;;;;10.26;79.52;97406.22;1779367;80;21064;-83
2022/05/30 03:32:35;;;;;;;7.72;5.30;;;;;;;10.24;79.24;97407.03;1779248;80;21036;-83
2022/05/30 03:35:01;;;;;;;10.55;5.58;;;;;;;10.27;79.21;97405.12;1779301;80;20830;-86
2022/05/30 03:37:27;;;;;;;5.22;4.72;;;;;;;10.27;79.43;97406.47;1774785;79;20893;-84
2022/05/30 03:39:53;;;;;;;7.75;4.53;;;;;;;10.26;79.41;97413.53;1758597;80;20980;-84
2022/05/30 03:42:19;;;;;;;8.78;5.20;;;;;;;10.24;79.59;97413.00;1779183;79;20866;-86
2022/05/30 03:44:45;;;;;;;7.53;5.30;;;;;;;10.26;79.58;97408.92;1779352;80;21155;-84
2022/05/30 03:47:11;;;;;;;6.50;4.75;;;;;;;10.32;79.48;97405.58;1774383;79;20980;-83
2022/05/30 03:49:37;;;;;;;9.28;5.10;;;;;;;10.31;81.08;97406.12;1779412;80;22385;-87
2022/05/30 03:52:04;;;;;;;7.83;4.90;;;;;;;10.29;79.92;97401.56;1778927;80;21008;-86
2022/05/30 03:54:30;;;;;;;7.70;5.83;;;;;;;10.30;79.90;97408.58;1770856;80;21012;-86
2022/05/30 03:56:56;;;;;;;8.83;5.58;;;;;;;10.31;79.71;97409.39;1779060;79;21560;-86
2022/05/30 03:59:22;;;;;;;11.75;5.40;;;;;;;10.29;79.65;97404.81;1779271;80;20924;-86
2022/05/30 04:01:48;;;;;;;8.50;4.90;;;;;;;10.31;79.58;97408.03;1747906;80;20992;-87
2022/05/30 04:04:14;;;;;;;11.12;5.00;;;;;;;10.33;79.62;97406.63;1747700;80;21631;-84
2022/05/30 04:06:40;;;;;;;5.40;3.27;;;;;;;10.36;79.54;97412.84;1750088;80;20908;-83
2022/05/30 04:09:06;;;;;;;5.10;3.77;;;;;;;10.35;79.78;97401.75;1775242;80;21149;-86
2022/05/30 04:11:32;;;;;;;4.78;3.50;;;;;;;10.38;79.53;97401.70;1779054;80;21449;-84
2022/05/30 04:13:58;;;;;;;5.08;3.37;;;;;;;10.38;80.04;97395.73;1774390;80;21597;-83
2022/05/30 04:16:24;;;;;;;3.52;3.20;;;;;;;10.43;79.49;97397.03;1762016;80;21013;-81
2022/05/30 04:18:50;;;;;;;4.83;3.12;;;;;;;10.37;80.86;97398.20;1778958;80;20882;-85
2022/05/30 04:21:16;;;;;;;3.50;2.90;;;;;;;10.41;80.01;97392.44;1756701;80;21596;-83
2022/05/30 04:23:42;;;;;;;4.62;3.30;;;;;;;10.48;80.55;97394.78;1767616;80;21039;-86
2022/05/30 04:26:10;;;;;;;3.50;2.58;;;;;;;10.54;79.62;97389.55;1733242;79;21029;-84
2022/05/30 04:28:36;;;;;;;5.25;3.05;;;;;;;10.56;79.40;97394.66;1753460;80;21445;-86
2022/05/30 04:31:07;;;;;;;5.85;3.25;;;;;;;10.60;79.19;97396.51;1778332;80;20970;-84
2022/05/30 04:33:33;;;;;;;5.85;4.28;;;;;;;10.66;79.00;97392.59;1778991;79;21078;-83
2022/05/30 04:36:02;;;;;;;5.47;3.45;;;;;;;10.69;78.82;97402.06;1756932;80;21014;-86
2022/05/30 04:38:27;;;;;;;4.20;3.50;;;;;;;10.66;78.70;97402.63;1756975;79;21034;-86
2022/05/30 04:40:53;;;;;;;6.95;3.62;;;;;;;10.73;78.65;97408.48;1775716;80;20881;-83
2022/05/30 04:43:20;;;;;;;9.88;3.40;;;;;;;10.79;78.61;97407.87;1779159;79;21040;-83
2022/05/30 04:45:46;;;;;;;4.15;2.85;;;;;;;10.82;78.42;97406.71;1777823;80;21361;-83
2022/05/30 04:48:11;;;;;;;4.45;2.92;;;;;;;10.81;78.15;97407.02;1779029;79;20876;-86
2022/05/30 04:50:37;;;;;;;3.85;3.22;;;;;;;10.85;77.98;97402.08;1778956;80;21586;-83
2022/05/30 04:53:03;;;;;;;5.15;2.87;;;;;;;10.89;77.84;97397.66;1779092;80;20941;-84
2022/05/30 04:55:29;;;;;;;4.58;3.02;;;;;;;10.92;77.65;97398.96;1778508;80;21142;-83
2022/05/30 04:57:55;;;;;;;3.10;2.08;;;;;;;10.97;77.58;97398.89;1779169;80;21170;-83
2022/05/30 05:00:24;;;;;;;13.72;3.77;;;;;;;11.03;77.25;97403.69;1772723;80;20868;-84
2022/05/30 05:02:52;;;;;;;6.53;2.52;;;;;;;11.03;76.96;97398.27;1742392;80;21008;-86
2022/05/30 05:05:18;;;;;;;7.80;2.20;;;;;;;10.99;76.65;97404.26;1766933;80;21005;-86
2022/05/30 05:07:51;;;;;;;3.40;2.17;;;;;;;11.03;76.71;97399.62;1779120;80;21478;-83
2022/05/30 05:10:34;;;;;;;7.92;3.02;;;;;;;11.08;76.48;97405.73;1773802;80;21145;-86
2022/05/30 05:13:00;;;;;;;3.47;2.50;;;;;;;11.07;76.31;97410.91;1755652;80;21060;-86
2022/05/30 05:15:26;;;;;;;4.10;2.25;;;;;;;11.09;76.33;97407.34;1710399;81;20973;-83
2022/05/30 05:17:54;;;;;;;4.85;2.33;;;;;;;11.14;76.08;97413.24;1776916;80;21040;-84
2022/05/30 05:20:22;;;;;;;6.30;3.15;;;;;;;11.14;75.73;97414.05;1779222;80;21025;-83
2022/05/30 05:22:47;;;;;;;3.17;2.30;;;;;;;11.16;75.76;97418.61;1778927;80;21069;-83
2022/05/30 05:25:13;;;;;;;3.65;2.00;;;;;;;11.21;75.76;97416.38;1775150;80;20866;-86
2022/05/30 05:27:39;;;;;;;8.58;4.10;;;;;;;11.23;75.54;97423.11;1750318;80;20869;-82
2022/05/30 05:30:07;;;;;;;17.10;7.67;;;;;;;11.26;75.36;97425.77;1776904;80;21535;-85
2022/05/30 05:32:33;;;;;;;42.90;18.35;;;;;;;11.32;75.33;97421.86;1748358;80;22243;-84
2022/05/30 05:34:59;;;;;;;64.97;27.25;;;;;;;11.41;75.13;97416.00;1779358;80;21139;-83
2022/05/30 05:37:24;;;;;;;43.35;16.65;;;;;;;11.46;74.54;97418.63;1773721;79;20892;-86
2022/05/30 05:39:51;;;;;;;24.63;9.88;;;;;;;11.46;74.63;97421.90;1760770;80;21324;-86
2022/05/30 05:42:17;;;;;;;15.88;7.50;;;;;;;11.52;74.72;97424.75;1773009;79;21047;-86
2022/05/30 05:44:42;;;;;;;8.80;5.15;;;;;;;11.57;74.51;97428.73;1779498;80;20906;-83
2022/05/30 05:47:08;;;;;;;15.10;8.48;;;;;;;11.56;74.08;97431.20;1778945;80;21376;-86
2022/05/30 05:49:35;;;;;;;8.43;4.03;;;;;;;11.56;74.14;97440.14;1779154;80;21606;-86
2022/05/30 05:52:01;;;;;;;4.90;2.62;;;;;;;11.62;74.00;97442.19;1778574;80;21056;-84
2022/05/30 05:54:28;;;;;;;2.92;1.87;;;;;;;11.67;73.76;97443.47;1778992;80;21000;-83
2022/05/30 05:56:54;;;;;;;2.08;1.62;;;;;;;11.77;73.52;97447.34;1779086;79;21002;-83
2022/05/30 05:59:20;;;;;;;5.22;1.70;;;;;;;11.85;73.17;97445.31;1767508;80;21318;-83
2022/05/30 06:01:45;;;;;;;4.08;2.05;;;;;;;11.93;72.79;97456.02;1767940;80;21698;-86
2022/05/30 06:04:11;;;;;;;4.37;1.85;;;;;;;12.09;71.76;97455.16;1761528;79;20913;-86
2022/05/30 06:06:37;;;;;;;5.28;2.40;;;;;;;12.11;72.01;97452.39;1764609;80;21494;-86
2022/05/30 06:09:04;;;;;;;2.55;1.87;;;;;;;12.25;71.73;97450.23;1762108;79;20898;-83
2022/05/30 06:11:31;;;;;;;2.27;2.08;;;;;;;12.43;71.78;97452.80;1764980;80;22050;-83
2022/05/30 06:13:57;;;;;;;3.87;2.00;;;;;;;12.55;71.00;97450.91;1712825;80;21029;-83
2022/05/30 06:16:32;;;;;;;6.60;1.95;;;;;;;12.60;68.22;97457.59;1774915;79;20859;-86
2022/05/30 06:19:01;;;;;;;4.95;2.12;;;;;;;12.70;70.12;97456.56;1754221;80;21018;-86
2022/05/30 06:21:28;;;;;;;2.58;1.52;;;;;;;12.77;69.23;97454.78;1766434;79;21051;-86
2022/05/30 06:23:54;;;;;;;2.98;1.77;;;;;;;12.73;68.37;97457.84;1748609;80;21181;-86
2022/05/30 06:26:20;;;;;;;1.80;1.42;;;;;;;12.84;68.95;97450.53;1767400;80;20986;-86
2022/05/30 06:28:46;;;;;;;6.00;5.40;;;;;;;13.00;68.48;97459.14;1762683;79;21027;-86
2022/05/30 06:31:16;;;;;;;2.85;1.60;;;;;;;13.25;67.60;97464.55;1759105;79;20987;-87
2022/05/30 06:33:42;;;;;;;2.20;1.60;;;;;;;13.30;66.68;97467.12;1761550;78;21020;-86
2022/05/30 06:36:10;;;;;;;12.40;2.75;;;;;;;13.31;66.74;97474.16;1771129;79;22488;-86
2022/05/30 06:38:36;;;;;;;2.25;1.45;;;;;;;13.33;66.34;97466.52;1767952;79;21044;-84
2022/05/30 06:41:19;;;;;;;1.80;1.30;;;;;;;13.35;65.24;97462.12;1770580;80;20909;-83
2022/05/30 06:43:44;;;;;;;2.87;1.50;;;;;;;13.29;64.11;97464.72;1758562;78;20996;-83
2022/05/30 06:46:12;;;;;;;2.08;1.32;;;;;;;13.20;65.04;97457.30;1771012;79;20870;-83
2022/05/30 06:48:38;;;;;;;2.33;1.75;;;;;;;13.19;65.82;97463.02;1770308;79;21517;-83
2022/05/30 06:51:06;;;;;;;2.15;1.60;;;;;;;13.12;65.80;97467.53;1755338;80;20923;-83
2022/05/30 06:53:32;;;;;;;5.95;2.83;;;;;;;13.04;65.81;97472.91;1768782;79;20957;-83
2022/05/30 06:55:58;;;;;;;9.83;2.25;;;;;;;12.95;65.39;97476.92;1767704;79;21562;-83
2022/05/30 06:58:24;;;;;;;6.58;2.98;;;;;;;12.94;65.72;97478.84;1776286;79;21095;-83
2022/05/30 07:00:51;;;;;;;5.42;2.75;;;;;;;12.96;66.21;97491.56;1763743;78;21874;-83
2022/05/30 07:03:17;;;;;;;8.78;5.78;;;;;;;13.09;66.10;97487.20;1775759;78;21056;-83
2022/05/30 07:05:44;;;;;;;4.03;2.85;;;;;;;13.10;65.02;97489.36;1762101;78;20912;-83
2022/05/30 07:08:10;;;;;;;5.10;2.00;;;;;;;13.07;65.58;97486.68;1775656;78;20972;-83
2022/05/30 07:10:37;;;;;;;3.90;2.22;;;;;;;13.10;65.10;97489.36;1769307;79;21341;-83
2022/05/30 07:13:04;;;;;;;2.75;2.50;;;;;;;13.08;64.71;97487.52;1762497;79;21165;-83
2022/05/30 07:15:31;;;;;;;6.22;3.72;;;;;;;13.07;64.80;97494.84;1750408;79;21069;-83
2022/05/30 07:17:57;;;;;;;5.33;3.10;;;;;;;13.13;64.33;97490.89;1762003;80;21028;-83
2022/05/30 07:20:24;;;;;;;4.37;2.80;;;;;;;13.05;64.26;97501.15;1776770;79;21530;-83
2022/05/30 07:22:49;;;;;;;5.92;3.75;;;;;;;12.99;64.69;97495.61;1767614;80;21047;-83
2022/05/30 07:25:15;;;;;;;5.30;4.75;;;;;;;13.08;63.83;97495.11;1774063;80;21669;-83
2022/05/30 07:27:41;;;;;;;3.20;2.90;;;;;;;13.09;64.57;97505.44;1776919;79;21068;-83
2022/05/30 07:30:08;;;;;;;3.50;2.40;;;;;;;13.15;64.54;97495.47;1774969;80;20957;-87
2022/05/30 07:32:34;;;;;;;3.52;2.12;;;;;;;13.30;64.51;97501.69;1775706;80;21057;-86
2022/05/30 07:35:00;;;;;;;15.13;10.88;;;;;;;13.39;64.26;97497.91;1759296;79;20955;-87
2022/05/30 07:37:26;;;;;;;4.95;3.52;;;;;;;13.51;62.36;97497.36;1768540;79;21142;-83
2022/05/30 07:39:52;;;;;;;3.85;2.70;;;;;;;13.28;63.37;97502.56;1768629;79;20905;-83
2022/05/30 07:42:18;;;;;;;2.75;2.22;;;;;;;13.48;63.84;97502.05;1776553;79;20866;-83
2022/05/30 07:44:44;;;;;;;3.35;2.55;;;;;;;14.15;62.87;97495.65;1777316;80;20862;-83
2022/05/30 07:47:11;;;;;;;4.08;2.85;;;;;;;14.64;62.26;97495.34;1775950;78;21114;-83
2022/05/30 07:49:38;;;;;;;5.12;4.62;;;;;;;14.71;58.80;97490.78;1776287;79;21111;-83
2022/05/30 07:52:04;;;;;;;4.55;3.95;;;;;;;14.30;60.37;97498.75;1774626;78;21068;-83
2022/05/30 07:54:30;;;;;;;5.30;3.37;;;;;;;14.32;60.50;97503.88;1775478;79;21024;-83
2022/05/30 07:56:56;;;;;;;3.98;3.40;;;;;;;14.24;59.84;97503.30;1771147;79;20999;-83
2022/05/30 07:59:22;;;;;;;4.92;2.30;;;;;;;14.02;60.85;97516.45;1756057;79;21004;-83
2022/05/30 08:01:48;;;;;;;1.67;1.40;;;;;;;13.98;61.23;97527.15;1769920;79;21293;-83
2022/05/30 08:04:15;;;;;;;3.92;2.08;;;;;;;13.92;60.46;97527.59;1772740;79;20834;-87
2022/05/30 08:06:41;;;;;;;3.85;2.95;;;;;;;13.95;61.21;97531.87;1772876;79;21718;-87
2022/05/30 08:09:07;;;;;;;9.33;4.72;;;;;;;14.09;61.14;97528.47;1767444;78;20856;-86
2022/05/30 08:11:32;;;;;;;2.70;2.20;;;;;;;14.62;60.40;97526.22;1772165;80;21583;-88
2022/05/30 08:13:58;;;;;;;5.95;2.33;;;;;;;14.85;59.04;97522.78;1765060;79;21626;-88
2022/05/30 08:16:26;;;;;;;4.42;1.98;;;;;;;14.83;60.58;97523.67;1768501;80;20830;-87
2022/05/30 08:18:52;;;;;;;3.02;2.12;;;;;;;14.88;59.39;97522.73;1776458;80;21028;-86
2022/05/30 08:21:18;;;;;;;3.55;1.80;;;;;;;14.97;60.46;97524.90;1777557;78;21063;-87
2022/05/30 08:23:44;;;;;;;2.37;1.50;;;;;;;15.16;60.12;97530.03;1770332;78;20984;-88
2022/05/30 08:26:13;;;;;;;3.70;1.80;;;;;;;15.61;59.21;97526.97;1767820;79;21137;-87
2022/05/30 08:28:40;;;;;;;4.10;1.75;;;;;;;16.20;58.79;97523.02;1775534;79;21004;-84
2022/05/30 08:31:06;;;;;;;4.42;2.08;;;;;;;17.60;53.67;97530.77;1746779;79;21043;-84
2022/05/30 08:33:32;;;;;;;5.70;1.60;;;;;;;18.88;54.39;97529.62;1768879;79;20929;-84
2022/05/30 08:36:01;;;;;;;2.80;1.60;;;;;;;20.31;49.43;97527.29;1775505;79;20953;-84
2022/05/30 08:38:33;;;;;;;6.70;1.57;;;;;;;20.83;46.88;97517.36;1769731;78;21115;-84
2022/05/30 08:43:39;;;;;;;2.12;1.32;;;;;;;19.02;47.20;97527.86;1776570;79;21008;-88
2022/05/30 08:46:14;;;;;;;7.83;5.37;;;;;;;18.32;48.91;97544.45;1776889;78;21154;-88
2022/05/30 08:48:47;;;;;;;7.00;3.40;;;;;;;17.77;48.14;97535.30;1774953;80;20969;-88
2022/05/30 08:51:44;;;;;;;6.58;3.42;;;;;;;18.91;48.94;97534.98;1766721;79;21847;-89
2022/05/30 08:54:24;;;;;;;5.60;2.67;;;;;;;19.92;46.13;97532.59;1761437;78;21705;-88
2022/05/30 08:56:50;;;;;;;13.62;2.83;;;;;;;21.05;46.15;97528.28;1765634;80;21091;-88
2022/05/30 08:59:53;;;;;;;3.87;1.20;;;;;;;22.28;39.03;97524.83;1761217;79;21983;-87
2022/05/30 09:02:33;;;;;;;3.33;1.62;;;;;;;22.43;41.16;97530.80;1764229;79;21080;-88
2022/05/30 09:05:12;;;;;;;3.17;1.52;;;;;;;22.23;41.03;97526.74;1767087;79;21157;-87
2022/05/30 09:07:41;;;;;;;4.05;2.60;;;;;;;22.58;39.48;97533.22;1771240;79;21047;-87
2022/05/30 09:10:15;;;;;;;3.77;1.10;;;;;;;21.36;39.06;97526.84;1773354;79;21001;-88
2022/05/30 09:12:46;;;;;;;6.28;2.80;;;;;;;20.23;41.46;97533.19;1769103;79;21064;-88
2022/05/30 09:15:23;;;;;;;4.28;2.45;;;;;;;19.61;42.68;97538.23;1772101;79;21058;-89
2022/05/30 09:18:00;;;;;;;3.33;2.30;;;;;;;21.50;41.01;97541.47;1768363;79;21397;-89
2022/05/30 09:20:26;;;;;;;2.40;1.30;;;;;;;22.07;37.46;97542.61;1743725;80;21052;-88
2022/05/30 09:22:52;;;;;;;2.15;1.12;;;;;;;22.61;37.69;97541.55;1764340;80;22239;-89
2022/05/30 09:28:08;;;;;;;2.02;1.30;;;;;;;20.19;40.88;97535.86;1764618;79;21523;-88
2022/05/30 09:30:42;;;;;;;3.90;1.35;;;;;;;21.21;40.87;97540.05;1769075;80;21060;-89
2022/05/30 09:33:31;;;;;;;3.92;1.50;;;;;;;20.86;38.25;97538.69;1770799;78;21111;-88
2022/05/30 09:36:14;;;;;;;2.30;1.50;;;;;;;20.26;40.78;97548.42;1780343;79;21020;-88
2022/05/30 09:38:45;;;;;;;6.33;1.98;;;;;;;18.82;43.57;97545.29;1752468;80;21045;-87
2022/05/30 09:41:18;;;;;;;3.87;1.60;;;;;;;17.46;46.28;97557.66;1777737;78;20990;-87
2022/05/30 09:44:04;;;;;;;2.75;1.80;;;;;;;16.76;47.37;97553.27;1769037;79;21906;-88
2022/05/30 09:46:39;;;;;;;4.40;2.22;;;;;;;16.13;49.55;97565.09;1771306;78;21552;-86
2022/05/30 09:49:12;;;;;;;3.67;2.30;;;;;;;16.09;49.19;97567.69;1772015;79;21096;-88
2022/05/30 09:51:46;;;;;;;5.12;1.98;;;;;;;16.19;48.91;97564.59;1765170;79;20970;-88
2022/05/30 09:54:26;;;;;;;3.33;1.70;;;;;;;16.52;49.11;97564.78;1769239;80;21071;-89
2022/05/30 09:57:12;;;;;;;4.72;1.77;;;;;;;16.69;49.22;97563.92;1762312;79;21090;-89
2022/05/30 09:59:41;;;;;;;3.98;1.60;;;;;;;17.28;48.29;97558.38;1771680;80;20984;-89
2022/05/30 10:02:30;;;;;;;6.30;2.05;;;;;;;17.92;47.92;97561.28;1770460;80;20981;-90
2022/05/30 10:05:22;;;;;;;3.80;2.05;;;;;;;18.36;47.38;97557.47;1759997;80;21037;-89
2022/05/30 10:08:00;;;;;;;3.17;1.75;;;;;;;18.76;44.16;97538.42;1769378;78;21035;-89
2022/05/30 10:10:39;;;;;;;2.55;1.55;;;;;;;20.39;40.90;97540.87;1771526;79;21572;-84
2022/05/30 10:13:09;;;;;;;;;;;;;;;22.55;40.05;97538.08;1766183;80;21056;-84
2022/05/30 10:15:43;;;;;;;1.82;1.30;;;;;;;24.08;35.12;97536.02;1774786;79;20144;-84
2022/05/30 10:18:28;;;;;;;4.42;1.77;;;;;;;22.09;36.78;97545.80;1755855;79;21115;-91
2022/05/30 10:21:22;;;;;;;4.60;1.55;;;;;;;20.68;40.36;97542.95;1774616;80;21599;-88
2022/05/30 10:30:38;;;;;;;3.42;2.37;;;;;;;18.22;46.23;97549.02;1751234;79;21033;-90
2022/05/30 10:33:37;;;;;;;2.83;1.70;;;;;;;18.38;45.73;97553.27;1732925;80;21079;-90
2022/05/30 10:36:20;;;;;;;5.75;2.35;;;;;;;19.75;42.09;97550.20;1774054;80;21094;-90
2022/05/30 10:38:58;;;;;;;5.15;2.37;;;;;;;21.89;39.33;97539.49;1766755;78;21855;-90
2022/05/30 10:41:50;;;;;;;2.73;1.33;;;;;;;20.62;40.93;97538.32;1774523;80;20989;-90
2022/05/30 10:44:26;;;;;;;4.45;2.17;;;;;;;20.81;39.96;97537.00;1777033;80;21372;-89
2022/05/30 10:47:17;;;;;;;5.47;2.77;;;;;;;19.69;42.45;97543.36;1761121;79;21434;-90
2022/05/30 10:49:48;;;;;;;4.10;1.90;;;;;;;18.63;44.44;97547.77;1761327;79;21061;-89
2022/05/30 10:52:34;;;;;;;4.12;2.37;;;;;;;18.00;46.43;97547.48;1765495;79;21111;-90
2022/05/30 10:55:05;;;;;;;5.12;2.72;;;;;;;18.41;45.35;97547.66;1769585;80;21441;-90
2022/05/30 10:57:50;;;;;;;13.22;3.37;;;;;;;18.14;46.29;97547.75;1769723;78;21044;-90
2022/05/30 11:00:19;;;;;;;3.02;2.27;;;;;;;18.05;46.46;97547.84;1770783;79;21535;-89
2022/05/30 11:03:10;;;;;;;4.50;2.12;;;;;;;19.09;44.26;97554.16;1775575;79;21096;-88
2022/05/30 11:06:03;;;;;;;3.27;2.10;;;;;;;18.77;45.11;97546.87;1774702;79;21563;-89
2022/05/30 11:08:37;;;;;;;5.50;2.22;;;;;;;18.61;45.83;97548.91;1779729;78;21111;-90
2022/05/30 11:11:49;;;;;;;4.92;2.17;;;;;;;17.85;45.78;97556.34;1770056;80;21024;-89
2022/05/30 11:14:43;;;;;;;6.85;4.22;;;;;;;17.76;46.64;97565.22;1731784;81;21091;-90
2022/05/30 11:17:30;;;;;;;5.42;3.85;;;;;;;17.27;47.43;97566.36;1686621;81;21096;-89
2022/05/30 11:20:14;;;;;;;9.38;4.45;;;;;;;16.75;49.54;97575.45;1708095;82;21188;-89
2022/05/30 11:22:48;;;;;;;13.32;8.05;;;;;;;16.69;48.91;97575.43;1729272;81;21016;-90
2022/05/30 11:25:39;;;;;;;6.97;4.83;;;;;;;16.57;49.86;97585.66;1728315;80;21036;-88
2022/05/30 11:28:44;;;;;;;7.87;3.35;;;;;;;16.55;50.90;97581.89;1750525;78;21095;-87
2022/05/30 11:31:28;;;;;;;4.83;3.47;;;;;;;16.68;50.60;97578.70;1770293;79;21090;-87
2022/05/30 11:34:11;;;;;;;9.60;4.92;;;;;;;16.89;50.99;97581.50;1770013;79;21088;-88
2022/05/30 11:36:52;;;;;;;7.33;4.70;;;;;;;16.74;50.66;97587.53;1772388;79;21486;-87
2022/05/30 11:39:30;;;;;;;4.17;3.45;;;;;;;17.10;50.07;97576.87;1765625;79;21016;-87
2022/05/30 11:42:26;;;;;;;7.92;3.83;;;;;;;17.85;48.38;97573.36;1749925;80;21765;-88
2022/05/30 11:44:56;;;;;;;6.50;2.85;;;;;;;18.23;47.61;97575.87;1764235;80;21063;-84
2022/05/30 11:47:48;;;;;;;5.15;3.20;;;;;;;18.07;47.48;97577.66;1772585;79;21803;-84
2022/05/30 11:50:29;;;;;;;4.17;2.87;;;;;;;21.16;42.20;97572.00;1764143;80;21151;-84
2022/05/30 11:53:37;;;;;;;5.45;2.90;;;;;;;23.58;36.30;97561.70;1764764;78;21116;-84
2022/05/30 11:56:20;;;;;;;3.35;2.58;;;;;;;23.56;34.08;97568.98;1769363;79;20967;-84
2022/05/30 11:59:16;;;;;;;4.62;2.65;;;;;;;24.36;32.39;97554.92;1774353;79;21040;-88
2022/05/30 12:01:42;;;;;;;2.67;1.90;;;;;;;26.38;32.58;97556.64;1785478;78;21852;-90
2022/05/30 12:04:25;;;;;;;2.40;1.70;;;;;;;26.61;30.17;97556.86;1771557;78;20985;-88
2022/05/30 12:06:59;;;;;;;4.25;2.08;;;;;;;23.10;34.09;97557.32;1776861;79;21084;-88
2022/05/30 12:09:48;;;;;;;2.90;2.27;;;;;;;21.75;37.18;97559.09;1779460;79;20977;-89
2022/05/30 12:12:34;;;;;;;2.83;2.35;;;;;;;20.77;39.08;97560.11;1763107;79;20949;-88
2022/05/30 12:15:24;;;;;;;3.50;2.10;;;;;;;20.67;41.02;97566.93;1763864;80;21136;-88